San Margherita, Ohio
Current Conditions -  °F | °C
As of 6:50 PM on Friday 24 Oct 2014 (Local Time) from KTZR Reporting Station
Clear Clear  
Wind Chill: 55°   Ceiling: Unl
Heat Index: 55°   Visibility: 10mi
Dew Point: 36°   Wind: 5mph
Humidity: 47%   Direction: 190°S
Pressure: 30.02"   Gusts: NA
Location:  39.9614°N, 83.083°W
Report Text: KTZR 242250Z 19004KT 10SM SKC 13/02 A3002
Loading
Personal Weather Stations






























Interactive Weather Map
Tropical Storm Tracking
New forecast layout! Learn more

10-Day Weather Forecast

Advertisements
Track Severe Weather on mobile